sensor_id;sensor_type;location;lat;lon;timestamp;P1;durP1;ratioP1;P2;durP2;ratioP2
40058;SDS011;25763;49.972;8.568;2023-04-15T00:00:05;21.60;;;20.35;;
40058;SDS011;25763;49.972;8.568;2023-04-15T00:02:31;20.88;;;19.73;;
40058;SDS011;25763;49.972;8.568;2023-04-15T00:04:56;20.23;;;19.05;;
40058;SDS011;25763;49.972;8.568;2023-04-15T00:07:21;18.73;;;17.67;;
40058;SDS011;25763;49.972;8.568;2023-04-15T00:09:47;18.05;;;17.05;;
40058;SDS011;25763;49.972;8.568;2023-04-15T00:12:12;16.95;;;16.00;;
40058;SDS011;25763;49.972;8.568;2023-04-15T00:14:37;19.67;;;18.55;;
40058;SDS011;25763;49.972;8.568;2023-04-15T00:17:03;16.98;;;15.88;;
40058;SDS011;25763;49.972;8.568;2023-04-15T00:19:29;16.13;;;15.07;;
40058;SDS011;25763;49.972;8.568;2023-04-15T00:21:55;15.32;;;14.45;;
40058;SDS011;25763;49.972;8.568;2023-04-15T00:24:21;17.50;;;16.50;;
40058;SDS011;25763;49.972;8.568;2023-04-15T00:26:47;15.88;;;14.95;;
40058;SDS011;25763;49.972;8.568;2023-04-15T00:29:13;15.85;;;14.93;;
40058;SDS011;25763;49.972;8.568;2023-04-15T00:31:39;16.30;;;15.35;;
40058;SDS011;25763;49.972;8.568;2023-04-15T00:34:04;17.85;;;16.80;;
40058;SDS011;25763;49.972;8.568;2023-04-15T00:36:30;16.05;;;15.15;;
40058;SDS011;25763;49.972;8.568;2023-04-15T00:38:56;15.35;;;14.43;;
40058;SDS011;25763;49.972;8.568;2023-04-15T00:41:21;15.45;;;14.52;;
40058;SDS011;25763;49.972;8.568;2023-04-15T00:43:47;14.57;;;13.73;;
40058;SDS011;25763;49.972;8.568;2023-04-15T00:46:12;14.55;;;13.73;;
40058;SDS011;25763;49.972;8.568;2023-04-15T00:48:40;13.90;;;13.10;;
40058;SDS011;25763;49.972;8.568;2023-04-15T00:51:06;15.60;;;14.73;;
40058;SDS011;25763;49.972;8.568;2023-04-15T00:53:31;15.02;;;14.15;;
40058;SDS011;25763;49.972;8.568;2023-04-15T00:55:57;12.38;;;11.65;;
40058;SDS011;25763;49.972;8.568;2023-04-15T00:58:22;12.40;;;11.68;;
40058;SDS011;25763;49.972;8.568;2023-04-15T01:00:48;13.13;;;12.23;;
40058;SDS011;25763;49.972;8.568;2023-04-15T01:03:18;13.20;;;12.30;;
40058;SDS011;25763;49.972;8.568;2023-04-15T01:05:43;11.95;;;11.15;;
40058;SDS011;25763;49.972;8.568;2023-04-15T01:08:09;10.45;;;9.82;;
40058;SDS011;25763;49.972;8.568;2023-04-15T01:10:35;10.30;;;9.70;;
40058;SDS011;25763;49.972;8.568;2023-04-15T01:13:01;11.85;;;11.15;;
40058;SDS011;25763;49.972;8.568;2023-04-15T01:15:27;12.48;;;11.73;;
40058;SDS011;25763;49.972;8.568;2023-04-15T01:17:52;11.90;;;10.98;;
40058;SDS011;25763;49.972;8.568;2023-04-15T01:20:18;12.95;;;12.15;;
40058;SDS011;25763;49.972;8.568;2023-04-15T01:22:44;13.07;;;12.27;;
40058;SDS011;25763;49.972;8.568;2023-04-15T01:25:11;11.85;;;11.15;;
40058;SDS011;25763;49.972;8.568;2023-04-15T01:27:41;11.57;;;10.88;;
40058;SDS011;25763;49.972;8.568;2023-04-15T01:30:07;14.55;;;13.43;;
40058;SDS011;25763;49.972;8.568;2023-04-15T01:32:34;13.38;;;12.57;;
40058;SDS011;25763;49.972;8.568;2023-04-15T01:35:00;14.25;;;13.43;;
40058;SDS011;25763;49.972;8.568;2023-04-15T01:37:26;15.20;;;14.25;;
40058;SDS011;25763;49.972;8.568;2023-04-15T01:39:51;15.13;;;14.25;;
40058;SDS011;25763;49.972;8.568;2023-04-15T01:42:16;15.23;;;14.35;;
40058;SDS011;25763;49.972;8.568;2023-04-15T01:44:42;13.82;;;13.02;;
40058;SDS011;25763;49.972;8.568;2023-04-15T01:47:07;14.85;;;13.98;;
40058;SDS011;25763;49.972;8.568;2023-04-15T01:49:33;13.55;;;12.73;;
40058;SDS011;25763;49.972;8.568;2023-04-15T01:51:58;12.85;;;12.05;;
40058;SDS011;25763;49.972;8.568;2023-04-15T01:54:24;12.45;;;11.73;;
40058;SDS011;25763;49.972;8.568;2023-04-15T01:56:50;11.95;;;11.20;;
40058;SDS011;25763;49.972;8.568;2023-04-15T01:59:16;11.15;;;10.45;;
40058;SDS011;25763;49.972;8.568;2023-04-15T02:01:41;11.02;;;10.23;;
40058;SDS011;25763;49.972;8.568;2023-04-15T02:04:07;10.27;;;9.57;;
40058;SDS011;25763;49.972;8.568;2023-04-15T02:06:40;9.88;;;9.27;;
40058;SDS011;25763;49.972;8.568;2023-04-15T02:09:05;10.00;;;9.40;;
40058;SDS011;25763;49.972;8.568;2023-04-15T02:11:31;9.30;;;8.70;;
40058;SDS011;25763;49.972;8.568;2023-04-15T02:13:57;9.45;;;8.85;;
40058;SDS011;25763;49.972;8.568;2023-04-15T02:16:22;9.52;;;8.93;;
40058;SDS011;25763;49.972;8.568;2023-04-15T02:18:47;9.38;;;8.77;;
40058;SDS011;25763;49.972;8.568;2023-04-15T02:21:13;9.45;;;8.85;;
40058;SDS011;25763;49.972;8.568;2023-04-15T02:23:38;9.30;;;8.60;;
40058;SDS011;25763;49.972;8.568;2023-04-15T02:26:03;9.63;;;9.02;;
40058;SDS011;25763;49.972;8.568;2023-04-15T02:28:29;10.13;;;9.43;;
40058;SDS011;25763;49.972;8.568;2023-04-15T02:30:54;10.20;;;9.43;;
40058;SDS011;25763;49.972;8.568;2023-04-15T02:33:21;9.05;;;8.45;;
40058;SDS011;25763;49.972;8.568;2023-04-15T02:35:47;10.18;;;9.57;;
40058;SDS011;25763;49.972;8.568;2023-04-15T02:38:12;9.15;;;8.55;;
40058;SDS011;25763;49.972;8.568;2023-04-15T02:40:40;9.35;;;8.75;;
40058;SDS011;25763;49.972;8.568;2023-04-15T02:43:06;10.07;;;9.27;;
40058;SDS011;25763;49.972;8.568;2023-04-15T02:45:32;10.73;;;10.00;;
40058;SDS011;25763;49.972;8.568;2023-04-15T02:47:57;9.82;;;9.07;;
40058;SDS011;25763;49.972;8.568;2023-04-15T02:50:22;8.50;;;8.00;;
40058;SDS011;25763;49.972;8.568;2023-04-15T02:52:49;8.70;;;8.10;;
40058;SDS011;25763;49.972;8.568;2023-04-15T02:55:14;9.15;;;8.55;;
40058;SDS011;25763;49.972;8.568;2023-04-15T02:57:42;8.40;;;7.90;;
40058;SDS011;25763;49.972;8.568;2023-04-15T03:00:07;9.48;;;8.88;;
40058;SDS011;25763;49.972;8.568;2023-04-15T03:02:35;9.63;;;9.02;;
40058;SDS011;25763;49.972;8.568;2023-04-15T03:05:02;8.43;;;7.93;;
40058;SDS011;25763;49.972;8.568;2023-04-15T03:07:28;8.50;;;8.00;;
40058;SDS011;25763;49.972;8.568;2023-04-15T03:09:54;8.82;;;8.25;;
40058;SDS011;25763;49.972;8.568;2023-04-15T03:12:19;9.20;;;8.60;;
40058;SDS011;25763;49.972;8.568;2023-04-15T03:14:45;9.90;;;9.23;;
40058;SDS011;25763;49.972;8.568;2023-04-15T03:17:10;10.98;;;10.27;;
40058;SDS011;25763;49.972;8.568;2023-04-15T03:19:36;10.57;;;9.88;;
40058;SDS011;25763;49.972;8.568;2023-04-15T03:22:01;10.65;;;9.95;;
40058;SDS011;25763;49.972;8.568;2023-04-15T03:24:27;11.52;;;10.70;;
40058;SDS011;25763;49.972;8.568;2023-04-15T03:26:53;9.85;;;9.25;;
40058;SDS011;25763;49.972;8.568;2023-04-15T03:29:19;10.55;;;9.80;;
40058;SDS011;25763;49.972;8.568;2023-04-15T03:31:44;9.55;;;8.85;;
40058;SDS011;25763;49.972;8.568;2023-04-15T03:34:10;9.73;;;9.13;;
40058;SDS011;25763;49.972;8.568;2023-04-15T03:36:35;9.27;;;8.68;;
40058;SDS011;25763;49.972;8.568;2023-04-15T03:39:01;9.02;;;8.43;;
40058;SDS011;25763;49.972;8.568;2023-04-15T03:41:27;8.85;;;8.25;;
40058;SDS011;25763;49.972;8.568;2023-04-15T03:43:52;8.60;;;8.10;;
40058;SDS011;25763;49.972;8.568;2023-04-15T03:46:18;9.10;;;8.50;;
40058;SDS011;25763;49.972;8.568;2023-04-15T03:48:43;9.48;;;8.88;;
40058;SDS011;25763;49.972;8.568;2023-04-15T03:51:09;8.90;;;8.30;;
40058;SDS011;25763;49.972;8.568;2023-04-15T03:53:35;9.48;;;8.88;;
40058;SDS011;25763;49.972;8.568;2023-04-15T03:56:00;8.18;;;7.68;;
40058;SDS011;25763;49.972;8.568;2023-04-15T03:58:26;8.15;;;7.65;;
40058;SDS011;25763;49.972;8.568;2023-04-15T04:00:51;10.18;;;9.23;;
40058;SDS011;25763;49.972;8.568;2023-04-15T04:03:17;8.98;;;8.38;;
40058;SDS011;25763;49.972;8.568;2023-04-15T04:05:42;8.98;;;8.38;;
40058;SDS011;25763;49.972;8.568;2023-04-15T04:08:08;9.98;;;8.55;;
40058;SDS011;25763;49.972;8.568;2023-04-15T04:10:34;9.10;;;8.50;;
40058;SDS011;25763;49.972;8.568;2023-04-15T04:12:59;9.63;;;9.02;;
40058;SDS011;25763;49.972;8.568;2023-04-15T04:15:26;9.18;;;8.57;;
40058;SDS011;25763;49.972;8.568;2023-04-15T04:17:51;8.70;;;8.10;;
40058;SDS011;25763;49.972;8.568;2023-04-15T04:20:16;10.50;;;9.82;;
40058;SDS011;25763;49.972;8.568;2023-04-15T04:22:42;9.15;;;8.55;;
40058;SDS011;25763;49.972;8.568;2023-04-15T04:25:07;10.88;;;9.98;;
40058;SDS011;25763;49.972;8.568;2023-04-15T04:27:34;9.77;;;9.18;;
40058;SDS011;25763;49.972;8.568;2023-04-15T04:30:00;9.75;;;9.15;;
40058;SDS011;25763;49.972;8.568;2023-04-15T04:32:26;9.73;;;9.13;;
40058;SDS011;25763;49.972;8.568;2023-04-15T04:34:51;9.80;;;9.18;;
40058;SDS011;25763;49.972;8.568;2023-04-15T04:37:17;10.20;;;9.60;;
40058;SDS011;25763;49.972;8.568;2023-04-15T04:39:42;9.77;;;9.18;;
40058;SDS011;25763;49.972;8.568;2023-04-15T04:42:07;9.75;;;9.15;;
40058;SDS011;25763;49.972;8.568;2023-04-15T04:44:33;9.10;;;8.50;;
40058;SDS011;25763;49.972;8.568;2023-04-15T04:46:58;10.77;;;10.07;;
40058;SDS011;25763;49.972;8.568;2023-04-15T04:49:24;9.77;;;9.18;;
40058;SDS011;25763;49.972;8.568;2023-04-15T04:51:49;9.10;;;8.50;;
40058;SDS011;25763;49.972;8.568;2023-04-15T04:54:15;9.88;;;9.27;;
40058;SDS011;25763;49.972;8.568;2023-04-15T04:56:41;9.00;;;8.40;;
40058;SDS011;25763;49.972;8.568;2023-04-15T04:59:06;9.35;;;8.75;;
40058;SDS011;25763;49.972;8.568;2023-04-15T05:01:31;9.38;;;8.75;;
40058;SDS011;25763;49.972;8.568;2023-04-15T05:03:57;9.52;;;8.73;;
40058;SDS011;25763;49.972;8.568;2023-04-15T05:06:23;8.90;;;8.30;;
40058;SDS011;25763;49.972;8.568;2023-04-15T05:08:48;8.90;;;8.30;;
40058;SDS011;25763;49.972;8.568;2023-04-15T05:11:14;9.52;;;8.93;;
40058;SDS011;25763;49.972;8.568;2023-04-15T05:13:40;8.77;;;8.18;;
40058;SDS011;25763;49.972;8.568;2023-04-15T05:16:05;8.52;;;8.02;;
40058;SDS011;25763;49.972;8.568;2023-04-15T05:18:31;9.40;;;8.80;;
40058;SDS011;25763;49.972;8.568;2023-04-15T05:20:57;9.60;;;8.90;;
40058;SDS011;25763;49.972;8.568;2023-04-15T05:23:22;9.10;;;8.50;;
40058;SDS011;25763;49.972;8.568;2023-04-15T05:25:48;9.93;;;9.23;;
40058;SDS011;25763;49.972;8.568;2023-04-15T05:28:13;8.93;;;8.32;;
40058;SDS011;25763;49.972;8.568;2023-04-15T05:30:39;8.82;;;8.23;;
40058;SDS011;25763;49.972;8.568;2023-04-15T05:33:04;9.50;;;8.90;;
40058;SDS011;25763;49.972;8.568;2023-04-15T05:35:30;9.57;;;8.98;;
40058;SDS011;25763;49.972;8.568;2023-04-15T05:37:55;9.00;;;8.40;;
40058;SDS011;25763;49.972;8.568;2023-04-15T05:40:21;9.10;;;8.50;;
40058;SDS011;25763;49.972;8.568;2023-04-15T05:42:46;8.77;;;8.20;;
40058;SDS011;25763;49.972;8.568;2023-04-15T05:45:11;9.00;;;8.40;;
40058;SDS011;25763;49.972;8.568;2023-04-15T05:47:37;8.80;;;8.20;;
40058;SDS011;25763;49.972;8.568;2023-04-15T05:50:03;9.20;;;8.60;;
40058;SDS011;25763;49.972;8.568;2023-04-15T05:52:30;8.93;;;8.32;;
40058;SDS011;25763;49.972;8.568;2023-04-15T05:54:55;13.70;;;10.10;;
40058;SDS011;25763;49.972;8.568;2023-04-15T05:57:21;9.77;;;9.18;;
40058;SDS011;25763;49.972;8.568;2023-04-15T05:59:47;10.93;;;10.10;;
40058;SDS011;25763;49.972;8.568;2023-04-15T06:02:13;10.55;;;9.95;;
40058;SDS011;25763;49.972;8.568;2023-04-15T06:04:38;10.88;;;10.18;;
40058;SDS011;25763;49.972;8.568;2023-04-15T06:07:03;11.65;;;10.85;;
40058;SDS011;25763;49.972;8.568;2023-04-15T06:09:29;15.05;;;13.90;;
40058;SDS011;25763;49.972;8.568;2023-04-15T06:11:54;11.52;;;10.73;;
40058;SDS011;25763;49.972;8.568;2023-04-15T06:14:21;10.50;;;9.77;;
40058;SDS011;25763;49.972;8.568;2023-04-15T06:16:47;10.40;;;9.70;;
40058;SDS011;25763;49.972;8.568;2023-04-15T06:19:12;10.48;;;9.77;;
40058;SDS011;25763;49.972;8.568;2023-04-15T06:21:38;10.20;;;9.50;;
40058;SDS011;25763;49.972;8.568;2023-04-15T06:24:03;9.75;;;9.15;;
40058;SDS011;25763;49.972;8.568;2023-04-15T06:26:29;9.55;;;8.95;;
40058;SDS011;25763;49.972;8.568;2023-04-15T06:28:55;9.88;;;9.27;;
40058;SDS011;25763;49.972;8.568;2023-04-15T06:31:21;10.27;;;9.57;;
40058;SDS011;25763;49.972;8.568;2023-04-15T06:33:46;9.63;;;9.02;;
40058;SDS011;25763;49.972;8.568;2023-04-15T06:36:12;9.65;;;9.05;;
40058;SDS011;25763;49.972;8.568;2023-04-15T06:38:37;9.38;;;8.77;;
40058;SDS011;25763;49.972;8.568;2023-04-15T06:41:03;9.20;;;8.60;;
40058;SDS011;25763;49.972;8.568;2023-04-15T06:43:28;10.43;;;9.68;;
40058;SDS011;25763;49.972;8.568;2023-04-15T06:45:54;8.80;;;8.20;;
40058;SDS011;25763;49.972;8.568;2023-04-15T06:48:20;13.55;;;9.98;;
40058;SDS011;25763;49.972;8.568;2023-04-15T06:50:46;10.00;;;9.35;;
40058;SDS011;25763;49.972;8.568;2023-04-15T06:53:12;9.32;;;8.73;;
40058;SDS011;25763;49.972;8.568;2023-04-15T06:55:38;9.40;;;8.80;;
40058;SDS011;25763;49.972;8.568;2023-04-15T06:58:04;9.85;;;9.15;;
40058;SDS011;25763;49.972;8.568;2023-04-15T07:00:29;11.60;;;10.80;;
40058;SDS011;25763;49.972;8.568;2023-04-15T07:02:55;10.77;;;9.98;;
40058;SDS011;25763;49.972;8.568;2023-04-15T07:05:21;13.00;;;12.00;;
40058;SDS011;25763;49.972;8.568;2023-04-15T07:07:46;9.63;;;9.02;;
40058;SDS011;25763;49.972;8.568;2023-04-15T07:10:12;11.55;;;10.50;;
40058;SDS011;25763;49.972;8.568;2023-04-15T07:12:39;10.02;;;8.98;;
40058;SDS011;25763;49.972;8.568;2023-04-15T07:15:04;10.65;;;10.05;;
40058;SDS011;25763;49.972;8.568;2023-04-15T07:17:30;9.50;;;8.90;;
40058;SDS011;25763;49.972;8.568;2023-04-15T07:19:56;11.40;;;10.50;;
40058;SDS011;25763;49.972;8.568;2023-04-15T07:22:21;11.35;;;10.65;;
40058;SDS011;25763;49.972;8.568;2023-04-15T07:24:47;11.05;;;10.25;;
40058;SDS011;25763;49.972;8.568;2023-04-15T07:27:12;13.20;;;12.30;;
40058;SDS011;25763;49.972;8.568;2023-04-15T07:29:37;11.73;;;10.85;;
40058;SDS011;25763;49.972;8.568;2023-04-15T07:32:03;11.85;;;11.05;;
40058;SDS011;25763;49.972;8.568;2023-04-15T07:34:28;11.65;;;10.85;;
40058;SDS011;25763;49.972;8.568;2023-04-15T07:36:54;12.27;;;11.38;;
40058;SDS011;25763;49.972;8.568;2023-04-15T07:39:19;11.30;;;10.60;;
40058;SDS011;25763;49.972;8.568;2023-04-15T07:41:45;10.98;;;10.27;;
40058;SDS011;25763;49.972;8.568;2023-04-15T07:44:10;11.75;;;10.95;;
40058;SDS011;25763;49.972;8.568;2023-04-15T07:46:35;12.10;;;11.30;;
40058;SDS011;25763;49.972;8.568;2023-04-15T07:49:02;10.98;;;10.27;;
40058;SDS011;25763;49.972;8.568;2023-04-15T07:51:27;11.05;;;10.35;;
40058;SDS011;25763;49.972;8.568;2023-04-15T07:53:53;11.18;;;10.38;;
40058;SDS011;25763;49.972;8.568;2023-04-15T07:56:19;11.80;;;11.02;;
40058;SDS011;25763;49.972;8.568;2023-04-15T07:58:44;13.23;;;12.43;;
40058;SDS011;25763;49.972;8.568;2023-04-15T08:01:10;14.95;;;14.05;;
40058;SDS011;25763;49.972;8.568;2023-04-15T08:03:35;15.93;;;14.93;;
40058;SDS011;25763;49.972;8.568;2023-04-15T08:06:01;15.10;;;14.20;;
40058;SDS011;25763;49.972;8.568;2023-04-15T08:08:27;17.73;;;16.73;;
40058;SDS011;25763;49.972;8.568;2023-04-15T08:10:52;24.83;;;23.35;;
40058;SDS011;25763;49.972;8.568;2023-04-15T08:13:17;24.35;;;23.05;;
40058;SDS011;25763;49.972;8.568;2023-04-15T08:15:43;18.58;;;17.38;;
40058;SDS011;25763;49.972;8.568;2023-04-15T08:18:08;25.05;;;23.67;;
40058;SDS011;25763;49.972;8.568;2023-04-15T08:20:34;27.63;;;26.13;;
40058;SDS011;25763;49.972;8.568;2023-04-15T08:23:00;25.75;;;23.50;;
40058;SDS011;25763;49.972;8.568;2023-04-15T08:25:26;25.80;;;24.40;;
40058;SDS011;25763;49.972;8.568;2023-04-15T08:27:54;23.15;;;21.90;;
40058;SDS011;25763;49.972;8.568;2023-04-15T08:30:19;22.10;;;20.90;;
40058;SDS011;25763;49.972;8.568;2023-04-15T08:32:45;23.60;;;22.33;;
40058;SDS011;25763;49.972;8.568;2023-04-15T08:35:11;25.70;;;24.30;;
40058;SDS011;25763;49.972;8.568;2023-04-15T08:37:37;26.63;;;25.17;;
40058;SDS011;25763;49.972;8.568;2023-04-15T08:40:02;27.75;;;26.25;;
40058;SDS011;25763;49.972;8.568;2023-04-15T08:42:33;26.10;;;24.70;;
40058;SDS011;25763;49.972;8.568;2023-04-15T08:45:02;25.35;;;24.00;;
40058;SDS011;25763;49.972;8.568;2023-04-15T08:47:29;23.52;;;22.27;;
40058;SDS011;25763;49.972;8.568;2023-04-15T08:49:58;24.40;;;23.08;;
40058;SDS011;25763;49.972;8.568;2023-04-15T08:52:29;26.80;;;25.40;;
40058;SDS011;25763;49.972;8.568;2023-04-15T08:54:55;27.75;;;26.25;;
40058;SDS011;25763;49.972;8.568;2023-04-15T08:57:25;27.10;;;25.70;;
40058;SDS011;25763;49.972;8.568;2023-04-15T08:59:53;18.25;;;17.25;;
40058;SDS011;25763;49.972;8.568;2023-04-15T09:02:20;15.73;;;14.82;;
40058;SDS011;25763;49.972;8.568;2023-04-15T09:04:47;13.95;;;13.15;;
40058;SDS011;25763;49.972;8.568;2023-04-15T09:07:12;24.90;;;23.40;;
40058;SDS011;25763;49.972;8.568;2023-04-15T09:09:38;18.08;;;16.58;;
40058;SDS011;25763;49.972;8.568;2023-04-15T09:12:04;24.42;;;23.13;;
40058;SDS011;25763;49.972;8.568;2023-04-15T09:14:30;19.60;;;18.50;;
40058;SDS011;25763;49.972;8.568;2023-04-15T09:17:00;21.27;;;20.08;;
40058;SDS011;25763;49.972;8.568;2023-04-15T09:19:29;13.82;;;13.02;;
40058;SDS011;25763;49.972;8.568;2023-04-15T09:21:57;12.82;;;12.07;;
40058;SDS011;25763;49.972;8.568;2023-04-15T09:24:23;12.95;;;12.18;;
40058;SDS011;25763;49.972;8.568;2023-04-15T09:26:51;12.75;;;11.93;;
40058;SDS011;25763;49.972;8.568;2023-04-15T09:29:19;11.82;;;11.13;;
40058;SDS011;25763;49.972;8.568;2023-04-15T09:31:45;13.55;;;12.70;;
40058;SDS011;25763;49.972;8.568;2023-04-15T09:34:10;11.88;;;11.18;;
40058;SDS011;25763;49.972;8.568;2023-04-15T09:36:53;13.35;;;12.55;;
40058;SDS011;25763;49.972;8.568;2023-04-15T09:39:20;12.88;;;12.07;;
40058;SDS011;25763;49.972;8.568;2023-04-15T09:41:46;13.30;;;12.45;;
40058;SDS011;25763;49.972;8.568;2023-04-15T09:44:24;12.93;;;12.15;;
40058;SDS011;25763;49.972;8.568;2023-04-15T09:46:50;12.15;;;11.45;;
40058;SDS011;25763;49.972;8.568;2023-04-15T09:49:16;12.48;;;11.77;;
40058;SDS011;25763;49.972;8.568;2023-04-15T09:51:42;13.32;;;12.52;;
40058;SDS011;25763;49.972;8.568;2023-04-15T09:54:08;14.20;;;13.32;;
40058;SDS011;25763;49.972;8.568;2023-04-15T09:56:38;12.75;;;12.02;;
40058;SDS011;25763;49.972;8.568;2023-04-15T09:59:09;12.68;;;11.90;;
40058;SDS011;25763;49.972;8.568;2023-04-15T10:01:35;13.07;;;12.23;;
40058;SDS011;25763;49.972;8.568;2023-04-15T10:04:03;12.57;;;11.77;;
40058;SDS011;25763;49.972;8.568;2023-04-15T10:06:30;12.40;;;11.60;;
40058;SDS011;25763;49.972;8.568;2023-04-15T10:08:59;13.27;;;12.38;;
40058;SDS011;25763;49.972;8.568;2023-04-15T10:11:27;12.40;;;11.70;;
40058;SDS011;25763;49.972;8.568;2023-04-15T10:13:53;12.82;;;12.07;;
40058;SDS011;25763;49.972;8.568;2023-04-15T10:16:20;12.60;;;11.80;;
40058;SDS011;25763;49.972;8.568;2023-04-15T10:18:58;12.52;;;11.75;;
40058;SDS011;25763;49.972;8.568;2023-04-15T10:21:26;12.45;;;11.75;;
40058;SDS011;25763;49.972;8.568;2023-04-15T10:23:52;11.80;;;11.10;;
40058;SDS011;25763;49.972;8.568;2023-04-15T10:26:18;12.25;;;11.55;;
40058;SDS011;25763;49.972;8.568;2023-04-15T10:28:43;13.27;;;12.38;;
40058;SDS011;25763;49.972;8.568;2023-04-15T10:31:11;12.77;;;11.98;;
40058;SDS011;25763;49.972;8.568;2023-04-15T10:33:40;12.70;;;11.90;;
40058;SDS011;25763;49.972;8.568;2023-04-15T10:36:06;13.50;;;12.35;;
40058;SDS011;25763;49.972;8.568;2023-04-15T10:41:20;12.05;;;11.30;;
40058;SDS011;25763;49.972;8.568;2023-04-15T10:44:08;14.60;;;13.15;;
40058;SDS011;25763;49.972;8.568;2023-04-15T10:46:41;12.25;;;11.55;;
40058;SDS011;25763;49.972;8.568;2023-04-15T10:49:11;12.30;;;11.50;;
40058;SDS011;25763;49.972;8.568;2023-04-15T10:51:42;11.95;;;11.23;;
40058;SDS011;25763;49.972;8.568;2023-04-15T10:56:43;11.38;;;10.68;;
40058;SDS011;25763;49.972;8.568;2023-04-15T10:59:08;11.65;;;10.95;;
40058;SDS011;25763;49.972;8.568;2023-04-15T11:01:53;12.95;;;12.15;;
40058;SDS011;25763;49.972;8.568;2023-04-15T11:12:38;14.32;;;13.27;;
40058;SDS011;25763;49.972;8.568;2023-04-15T11:17:52;12.70;;;11.95;;
40058;SDS011;25763;49.972;8.568;2023-04-15T11:20:17;12.05;;;11.35;;
40058;SDS011;25763;49.972;8.568;2023-04-15T11:22:50;12.20;;;11.50;;
40058;SDS011;25763;49.972;8.568;2023-04-15T11:25:23;12.82;;;12.10;;
40058;SDS011;25763;49.972;8.568;2023-04-15T11:27:53;14.02;;;13.23;;
40058;SDS011;25763;49.972;8.568;2023-04-15T11:30:20;15.40;;;14.50;;
40058;SDS011;25763;49.972;8.568;2023-04-15T11:32:47;16.38;;;15.48;;
40058;SDS011;25763;49.972;8.568;2023-04-15T11:35:15;13.50;;;12.70;;
40058;SDS011;25763;49.972;8.568;2023-04-15T11:37:41;14.43;;;13.63;;
40058;SDS011;25763;49.972;8.568;2023-04-15T11:40:07;15.05;;;14.18;;
40058;SDS011;25763;49.972;8.568;2023-04-15T11:42:33;15.60;;;14.70;;
40058;SDS011;25763;49.972;8.568;2023-04-15T11:45:08;12.07;;;11.38;;
40058;SDS011;25763;49.972;8.568;2023-04-15T11:47:40;13.73;;;12.93;;
40058;SDS011;25763;49.972;8.568;2023-04-15T11:52:58;13.15;;;12.35;;
40058;SDS011;25763;49.972;8.568;2023-04-15T11:55:26;12.15;;;11.45;;
40058;SDS011;25763;49.972;8.568;2023-04-15T11:58:11;12.02;;;11.32;;
40058;SDS011;25763;49.972;8.568;2023-04-15T12:00:40;12.32;;;11.63;;
40058;SDS011;25763;49.972;8.568;2023-04-15T12:03:10;11.95;;;11.25;;
40058;SDS011;25763;49.972;8.568;2023-04-15T12:08:46;13.30;;;12.50;;
40058;SDS011;25763;49.972;8.568;2023-04-15T12:11:28;11.40;;;10.70;;
40058;SDS011;25763;49.972;8.568;2023-04-15T12:13:56;11.30;;;10.60;;
40058;SDS011;25763;49.972;8.568;2023-04-15T12:16:23;11.35;;;10.65;;
40058;SDS011;25763;49.972;8.568;2023-04-15T12:18:49;12.27;;;11.55;;
40058;SDS011;25763;49.972;8.568;2023-04-15T12:21:17;15.50;;;14.60;;
40058;SDS011;25763;49.972;8.568;2023-04-15T12:23:50;13.30;;;12.40;;
40058;SDS011;25763;49.972;8.568;2023-04-15T12:26:27;15.02;;;14.18;;
40058;SDS011;25763;49.972;8.568;2023-04-15T12:29:05;26.63;;;25.23;;
40058;SDS011;25763;49.972;8.568;2023-04-15T12:31:32;27.15;;;25.73;;
40058;SDS011;25763;49.972;8.568;2023-04-15T12:33:59;27.50;;;26.10;;
40058;SDS011;25763;49.972;8.568;2023-04-15T12:36:25;26.70;;;25.30;;
40058;SDS011;25763;49.972;8.568;2023-04-15T12:38:51;24.67;;;23.38;;
40058;SDS011;25763;49.972;8.568;2023-04-15T12:41:17;28.80;;;27.27;;
40058;SDS011;25763;49.972;8.568;2023-04-15T12:43:45;29.92;;;28.38;;
40058;SDS011;25763;49.972;8.568;2023-04-15T12:46:11;30.85;;;28.85;;
40058;SDS011;25763;49.972;8.568;2023-04-15T12:48:37;30.50;;;28.88;;
40058;SDS011;25763;49.972;8.568;2023-04-15T12:51:03;28.27;;;26.77;;
40058;SDS011;25763;49.972;8.568;2023-04-15T12:53:28;31.85;;;30.15;;
40058;SDS011;25763;49.972;8.568;2023-04-15T12:55:53;28.35;;;26.88;;
40058;SDS011;25763;49.972;8.568;2023-04-15T12:58:19;20.48;;;19.35;;
40058;SDS011;25763;49.972;8.568;2023-04-15T13:00:45;22.05;;;20.85;;
40058;SDS011;25763;49.972;8.568;2023-04-15T13:03:11;19.10;;;18.05;;
40058;SDS011;25763;49.972;8.568;2023-04-15T13:05:37;17.08;;;16.13;;
40058;SDS011;25763;49.972;8.568;2023-04-15T13:08:03;14.27;;;13.48;;
40058;SDS011;25763;49.972;8.568;2023-04-15T13:10:29;13.90;;;13.00;;
40058;SDS011;25763;49.972;8.568;2023-04-15T13:12:55;12.85;;;12.05;;
40058;SDS011;25763;49.972;8.568;2023-04-15T13:15:21;15.32;;;14.45;;
40058;SDS011;25763;49.972;8.568;2023-04-15T13:17:47;13.27;;;12.50;;
40058;SDS011;25763;49.972;8.568;2023-04-15T13:20:13;12.52;;;11.82;;
40058;SDS011;25763;49.972;8.568;2023-04-15T13:22:39;11.98;;;11.27;;
40058;SDS011;25763;49.972;8.568;2023-04-15T13:25:05;12.90;;;12.10;;
40058;SDS011;25763;49.972;8.568;2023-04-15T13:27:31;13.57;;;12.77;;
40058;SDS011;25763;49.972;8.568;2023-04-15T13:29:57;11.98;;;11.25;;
40058;SDS011;25763;49.972;8.568;2023-04-15T13:32:23;11.63;;;10.93;;
40058;SDS011;25763;49.972;8.568;2023-04-15T13:34:49;11.07;;;10.38;;
40058;SDS011;25763;49.972;8.568;2023-04-15T13:37:14;15.32;;;14.45;;
40058;SDS011;25763;49.972;8.568;2023-04-15T13:39:40;16.85;;;15.88;;
40058;SDS011;25763;49.972;8.568;2023-04-15T13:42:05;13.18;;;12.40;;
40058;SDS011;25763;49.972;8.568;2023-04-15T13:44:30;13.48;;;12.68;;
40058;SDS011;25763;49.972;8.568;2023-04-15T13:46:56;14.10;;;13.30;;
40058;SDS011;25763;49.972;8.568;2023-04-15T13:49:21;10.77;;;10.13;;
40058;SDS011;25763;49.972;8.568;2023-04-15T13:51:47;12.52;;;11.82;;
40058;SDS011;25763;49.972;8.568;2023-04-15T13:54:12;13.18;;;12.38;;
40058;SDS011;25763;49.972;8.568;2023-04-15T13:56:38;11.77;;;11.07;;
40058;SDS011;25763;49.972;8.568;2023-04-15T13:59:03;12.75;;;11.95;;
40058;SDS011;25763;49.972;8.568;2023-04-15T14:01:30;14.07;;;13.27;;
40058;SDS011;25763;49.972;8.568;2023-04-15T14:03:56;13.57;;;12.77;;
40058;SDS011;25763;49.972;8.568;2023-04-15T14:06:21;12.50;;;11.75;;
40058;SDS011;25763;49.972;8.568;2023-04-15T14:08:46;11.95;;;11.25;;
40058;SDS011;25763;49.972;8.568;2023-04-15T14:11:12;12.77;;;11.98;;
40058;SDS011;25763;49.972;8.568;2023-04-15T14:13:37;13.25;;;12.45;;
40058;SDS011;25763;49.972;8.568;2023-04-15T14:16:03;12.73;;;12.02;;
40058;SDS011;25763;49.972;8.568;2023-04-15T14:18:28;13.18;;;12.38;;
40058;SDS011;25763;49.972;8.568;2023-04-15T14:20:54;12.80;;;12.10;;
40058;SDS011;25763;49.972;8.568;2023-04-15T14:23:20;11.50;;;10.80;;
40058;SDS011;25763;49.972;8.568;2023-04-15T14:25:46;11.80;;;11.10;;
40058;SDS011;25763;49.972;8.568;2023-04-15T14:28:11;11.07;;;10.38;;
40058;SDS011;25763;49.972;8.568;2023-04-15T14:30:36;11.88;;;11.00;;
40058;SDS011;25763;49.972;8.568;2023-04-15T14:33:02;12.02;;;11.32;;
40058;SDS011;25763;49.972;8.568;2023-04-15T14:35:27;12.40;;;11.70;;
40058;SDS011;25763;49.972;8.568;2023-04-15T14:37:53;12.65;;;11.95;;
40058;SDS011;25763;49.972;8.568;2023-04-15T14:40:19;11.85;;;11.15;;
40058;SDS011;25763;49.972;8.568;2023-04-15T14:42:45;12.13;;;11.43;;
40058;SDS011;25763;49.972;8.568;2023-04-15T14:45:10;11.50;;;10.80;;